createdAt,value
2022-10-24T00:01:27.330Z,96330.34
2022-10-24T00:03:55.103Z,96345.13
2022-10-24T00:06:23.032Z,96356.19
2022-10-24T00:08:51.260Z,96352.44
2022-10-24T00:11:22.762Z,96347.59
2022-10-24T00:13:51.315Z,96361.63
2022-10-24T00:16:19.284Z,96364.03
2022-10-24T00:18:47.679Z,96370.78
2022-10-24T00:21:15.684Z,96389.50
2022-10-24T00:23:43.357Z,96409.97
2022-10-24T00:26:12.441Z,96435.81
2022-10-24T00:28:42.362Z,96456.63
2022-10-24T00:31:13.763Z,96421.22
2022-10-24T00:33:41.820Z,96387.22
2022-10-24T00:36:12.667Z,96394.34
2022-10-24T00:38:40.431Z,96377.63
2022-10-24T00:41:08.319Z,96372.53
2022-10-24T00:43:36.057Z,96389.50
2022-10-24T00:46:05.244Z,96379.25
2022-10-24T00:48:36.654Z,96393.25
2022-10-24T00:51:07.896Z,96394.84
2022-10-24T00:53:43.155Z,96363.47
2022-10-24T00:56:13.958Z,96397.16
2022-10-24T00:58:43.961Z,96386.09
2022-10-24T01:01:13.545Z,96379.09
2022-10-24T01:03:41.731Z,96381.50
2022-10-24T01:06:37.636Z,96394.94
2022-10-24T01:09:15.147Z,96397.88
2022-10-24T01:12:02.987Z,96397.59
2022-10-24T01:14:43.189Z,96391.91
2022-10-24T01:17:18.898Z,96378.16
2022-10-24T01:20:08.821Z,96381.34
2022-10-24T01:22:48.843Z,96400.97
2022-10-24T01:25:26.438Z,96378.53
2022-10-24T01:28:04.992Z,96406.81
2022-10-24T01:30:42.560Z,96399.59
2022-10-24T01:33:18.534Z,96380.88
2022-10-24T01:35:52.786Z,96365.66
2022-10-24T01:38:25.010Z,96401.50
2022-10-24T01:40:56.930Z,96385.88
2022-10-24T01:43:28.163Z,96398.91
2022-10-24T01:46:02.861Z,96372.50
2022-10-24T01:48:34.488Z,96376.81
2022-10-24T01:51:04.286Z,96364.91
2022-10-24T01:53:32.654Z,96364.38
2022-10-24T01:56:01.274Z,96382.97
2022-10-24T01:58:28.952Z,96373.47
2022-10-24T02:01:01.577Z,96355.38
2022-10-24T02:03:33.495Z,96362.03
2022-10-24T02:06:07.856Z,96365.25
2022-10-24T02:08:41.516Z,96370.06
2022-10-24T02:11:10.655Z,96358.69
2022-10-24T02:13:45.628Z,96373.00
2022-10-24T02:16:18.590Z,96372.28
2022-10-24T02:18:47.796Z,96359.69
2022-10-24T02:21:25.676Z,96369.09
2022-10-24T02:23:59.765Z,96365.66
2022-10-24T02:26:34.772Z,96340.56
2022-10-24T02:29:08.046Z,96360.53
2022-10-24T02:31:43.000Z,96354.31
2022-10-24T02:36:49.416Z,96339.00
2022-10-24T02:39:18.779Z,96333.59
2022-10-24T02:41:47.704Z,96343.81
2022-10-24T02:44:17.839Z,96333.53
2022-10-24T02:46:49.015Z,96340.47
2022-10-24T02:49:16.779Z,96357.97
2022-10-24T02:51:46.020Z,96371.97
2022-10-24T02:54:14.229Z,96345.59
2022-10-24T02:56:47.160Z,96348.09
2022-10-24T02:59:15.036Z,96342.91
2022-10-24T03:01:42.817Z,96341.03
2022-10-24T03:04:11.985Z,96343.78
2022-10-24T03:06:39.677Z,96352.06
2022-10-24T03:09:07.349Z,96362.56
2022-10-24T03:11:35.332Z,96362.97
2022-10-24T03:14:03.118Z,96353.06
2022-10-24T03:16:30.798Z,96355.75
2022-10-24T03:18:58.486Z,96359.81
2022-10-24T03:21:27.614Z,96367.88
2022-10-24T03:23:55.316Z,96377.34
2022-10-24T03:26:23.149Z,96399.44
2022-10-24T03:28:50.882Z,96372.72
2022-10-24T03:31:18.635Z,96382.69
2022-10-24T03:33:46.357Z,96372.69
2022-10-24T03:36:14.108Z,96368.06
2022-10-24T03:38:43.214Z,96378.81
2022-10-24T03:41:10.952Z,96384.06
2022-10-24T03:43:38.595Z,96389.97
2022-10-24T03:46:06.526Z,96396.88
2022-10-24T03:48:34.554Z,96393.13
2022-10-24T03:51:02.251Z,96371.81
2022-10-24T03:53:29.992Z,96364.56
2022-10-24T03:56:00.363Z,96349.69
2022-10-24T03:58:28.736Z,96366.06
2022-10-24T04:00:58.528Z,96388.16
2022-10-24T04:03:26.704Z,96376.28
2022-10-24T04:05:55.241Z,96383.81
2022-10-24T04:08:22.983Z,96395.56
2022-10-24T04:10:50.786Z,96406.41
2022-10-24T04:13:19.862Z,96426.03
2022-10-24T04:15:47.683Z,96421.75
2022-10-24T04:18:15.380Z,96420.06
2022-10-24T04:20:43.292Z,96412.88
2022-10-24T04:23:11.178Z,96420.47
2022-10-24T04:25:38.902Z,96406.41
2022-10-24T04:28:06.646Z,96405.34
2022-10-24T04:30:36.088Z,96390.50
2022-10-24T04:33:03.902Z,96364.63
2022-10-24T04:35:31.641Z,96383.28
2022-10-24T04:37:59.399Z,96375.72
2022-10-24T04:40:27.126Z,96384.66
2022-10-24T04:42:54.873Z,96379.53
2022-10-24T04:45:22.698Z,96357.44
2022-10-24T04:47:52.082Z,96364.25
2022-10-24T04:50:19.973Z,96352.19
2022-10-24T04:52:47.728Z,96354.31
2022-10-24T04:55:15.506Z,96373.38
2022-10-24T04:57:43.592Z,96366.56
2022-10-24T05:00:21.228Z,96365.19
2022-10-24T05:02:54.079Z,96366.31
2022-10-24T05:05:24.489Z,96357.47
2022-10-24T05:07:52.224Z,96376.53
2022-10-24T05:10:20.430Z,96367.94
2022-10-24T05:12:48.453Z,96359.88
2022-10-24T05:15:16.302Z,96348.50
2022-10-24T05:17:43.986Z,96352.84
2022-10-24T05:20:13.369Z,96349.84
2022-10-24T05:22:41.708Z,96322.97
2022-10-24T05:25:09.946Z,96341.34
2022-10-24T05:27:37.621Z,96350.56
2022-10-24T05:30:06.679Z,96342.50
2022-10-24T05:32:37.303Z,96316.53
2022-10-24T05:35:08.413Z,96347.09
2022-10-24T05:37:38.942Z,96335.50
2022-10-24T05:40:08.744Z,96332.78
2022-10-24T05:42:39.408Z,96334.09
2022-10-24T05:45:09.620Z,96314.94
2022-10-24T05:47:38.781Z,96353.78
2022-10-24T05:50:10.151Z,96363.50
2022-10-24T05:52:46.130Z,96366.06
2022-10-24T05:55:17.882Z,96367.69
2022-10-24T05:57:47.209Z,96383.00
2022-10-24T06:00:17.331Z,96409.03
2022-10-24T06:05:15.066Z,96413.28
2022-10-24T06:07:44.521Z,96415.78
2022-10-24T06:10:13.603Z,96408.56
2022-10-24T06:12:41.506Z,96409.19
2022-10-24T06:15:10.552Z,96417.78
2022-10-24T06:17:38.239Z,96408.09
2022-10-24T06:20:06.578Z,96384.19
2022-10-24T06:22:34.252Z,96372.69
2022-10-24T06:25:03.541Z,96370.06
2022-10-24T06:27:31.313Z,96375.88
2022-10-24T06:29:58.961Z,96385.38
2022-10-24T06:32:26.748Z,96390.22
2022-10-24T06:34:54.408Z,96382.50
2022-10-24T06:37:22.186Z,96379.56
2022-10-24T06:39:49.915Z,96401.00
2022-10-24T06:42:18.941Z,96395.94
2022-10-24T06:44:46.705Z,96389.44
2022-10-24T06:47:14.425Z,96395.63
2022-10-24T06:49:42.289Z,96410.16
2022-10-24T06:52:10.133Z,96422.53
2022-10-24T06:54:39.057Z,96427.41
2022-10-24T06:57:06.850Z,96417.78
2022-10-24T06:59:37.220Z,96424.63
2022-10-24T07:02:06.118Z,96415.78
2022-10-24T07:04:34.069Z,96403.44
2022-10-24T07:07:01.752Z,96396.69
2022-10-24T07:09:30.539Z,96384.13
2022-10-24T07:11:59.333Z,96402.91
2022-10-24T07:14:27.214Z,96412.81
2022-10-24T07:16:56.265Z,96418.00
2022-10-24T07:19:23.953Z,96394.53
2022-10-24T07:21:51.617Z,96414.41
2022-10-24T07:24:19.994Z,96408.84
2022-10-24T07:26:47.881Z,96402.59
2022-10-24T07:29:15.571Z,96409.94
2022-10-24T07:31:43.281Z,96408.16
2022-10-24T07:34:12.333Z,96422.84
2022-10-24T07:36:41.505Z,96437.75
2022-10-24T07:39:10.751Z,96407.13
2022-10-24T07:41:41.660Z,96398.28
2022-10-24T07:44:10.225Z,96426.25
2022-10-24T07:46:38.557Z,96442.47
2022-10-24T07:49:06.310Z,96448.69
2022-10-24T07:51:38.747Z,96455.44
2022-10-24T07:54:06.480Z,96468.31
2022-10-24T07:56:34.226Z,96459.16
2022-10-24T07:59:09.040Z,96479.84
2022-10-24T08:01:41.534Z,96492.97
2022-10-24T08:04:09.917Z,96494.00
2022-10-24T08:06:40.647Z,96509.38
2022-10-24T08:09:08.320Z,96518.81
2022-10-24T08:11:36.091Z,96536.03
2022-10-24T08:14:03.919Z,96516.41
2022-10-24T08:16:31.669Z,96514.50
2022-10-24T08:18:59.525Z,96536.22
2022-10-24T08:21:27.840Z,96541.41
2022-10-24T08:23:56.908Z,96535.94
2022-10-24T08:26:26.029Z,96557.25
2022-10-24T08:28:55.238Z,96550.56
2022-10-24T08:31:24.847Z,96561.59
2022-10-24T08:33:54.404Z,96562.94
2022-10-24T08:36:24.682Z,96568.91
2022-10-24T08:38:52.510Z,96572.13
2022-10-24T08:41:28.417Z,96573.84
2022-10-24T08:43:59.330Z,96573.41
2022-10-24T08:46:44.166Z,96561.66
2022-10-24T08:49:24.892Z,96556.56
2022-10-24T08:51:56.307Z,96563.34
2022-10-24T08:54:51.722Z,96546.66
2022-10-24T08:57:23.861Z,96526.47
2022-10-24T08:59:54.784Z,96547.16
2022-10-24T09:02:25.817Z,96555.31
2022-10-24T09:04:58.031Z,96548.56
2022-10-24T09:07:26.251Z,96552.34
2022-10-24T09:10:04.471Z,96538.50
2022-10-24T09:12:35.327Z,96533.94
2022-10-24T09:15:03.508Z,96534.81
2022-10-24T09:17:33.548Z,96531.63
2022-10-24T09:20:21.489Z,96543.47
2022-10-24T09:22:50.224Z,96493.19
2022-10-24T09:25:22.431Z,96527.31
2022-10-24T09:27:52.321Z,96544.78
2022-10-24T09:30:22.352Z,96552.59
2022-10-24T09:32:50.222Z,96554.69
2022-10-24T09:35:20.673Z,96546.88
2022-10-24T09:37:50.602Z,96550.25
2022-10-24T09:40:22.228Z,96552.41
2022-10-24T09:42:56.733Z,96543.25
2022-10-24T09:45:37.824Z,96548.78
2022-10-24T09:48:16.509Z,96562.00
2022-10-24T09:50:45.750Z,96587.03
2022-10-24T09:53:25.822Z,96600.53
2022-10-24T09:56:20.004Z,96589.13
2022-10-24T09:58:49.075Z,96599.81
2022-10-24T10:01:22.655Z,96619.56
2022-10-24T10:04:07.565Z,96646.03
2022-10-24T10:06:45.054Z,96662.19
2022-10-24T10:09:15.144Z,96675.91
2022-10-24T10:11:49.501Z,96691.41
2022-10-24T10:14:25.594Z,96704.13
2022-10-24T10:17:00.793Z,96717.56
2022-10-24T10:19:32.547Z,96702.47
2022-10-24T10:22:02.390Z,96700.13
2022-10-24T10:24:39.184Z,96695.91
2022-10-24T10:27:39.406Z,96692.91
2022-10-24T10:30:20.079Z,96673.38
2022-10-24T10:33:18.520Z,96683.69
2022-10-24T10:35:53.599Z,96688.03
2022-10-24T10:38:37.862Z,96661.50
2022-10-24T10:41:13.794Z,96677.22
2022-10-24T10:43:49.440Z,96649.34
2022-10-24T10:46:29.668Z,96618.91
2022-10-24T10:49:07.147Z,96623.22
2022-10-24T10:51:43.010Z,96631.59
2022-10-24T10:54:25.412Z,96616.69
2022-10-24T10:56:55.616Z,96596.75
2022-10-24T10:59:37.669Z,96594.13
2022-10-24T11:02:21.788Z,96589.31
2022-10-24T11:04:59.526Z,96601.28
2022-10-24T11:07:34.588Z,96599.16
2022-10-24T11:10:07.120Z,96607.69
2022-10-24T11:12:37.660Z,96589.31
2022-10-24T11:15:15.075Z,96601.63
2022-10-24T11:17:50.233Z,96600.00
2022-10-24T11:20:22.397Z,96598.88
2022-10-24T11:22:54.248Z,96618.63
2022-10-24T11:25:26.875Z,96607.41
2022-10-24T11:28:03.979Z,96607.13
2022-10-24T11:30:48.070Z,96604.75
2022-10-24T11:33:21.822Z,96591.88
2022-10-24T11:36:09.073Z,96598.41
2022-10-24T11:38:43.679Z,96597.38
2022-10-24T11:41:36.471Z,96591.44
2022-10-24T11:44:13.118Z,96578.00
2022-10-24T11:46:45.549Z,96563.63
2022-10-24T11:49:21.450Z,96547.81
2022-10-24T11:51:54.748Z,96577.38
2022-10-24T11:54:27.729Z,96575.13
2022-10-24T11:56:59.439Z,96578.63
2022-10-24T11:59:27.140Z,96551.22
2022-10-24T12:02:45.149Z,96558.25
2022-10-24T12:05:44.166Z,96552.63
2022-10-24T12:08:28.912Z,96560.22
2022-10-24T12:11:13.199Z,96555.38
2022-10-24T12:13:53.357Z,96564.69
2022-10-24T12:16:34.651Z,96571.69
2022-10-24T12:19:05.358Z,96564.75
2022-10-24T12:21:41.366Z,96576.19
2022-10-24T12:24:22.164Z,96573.69
2022-10-24T12:26:57.147Z,96579.06
2022-10-24T12:29:27.878Z,96559.31
2022-10-24T12:31:55.926Z,96572.59
2022-10-24T12:34:48.905Z,96555.47
2022-10-24T12:37:36.087Z,96564.53
2022-10-24T12:40:36.847Z,96529.41
2022-10-24T12:43:33.019Z,96506.81
2022-10-24T12:46:01.939Z,96476.94
2022-10-24T12:48:32.802Z,96536.16
2022-10-24T12:51:11.369Z,96537.31
2022-10-24T12:54:02.155Z,96525.09
2022-10-24T12:56:30.588Z,96532.28
2022-10-24T12:59:04.618Z,96544.97
2022-10-24T13:01:35.585Z,96536.69
2022-10-24T13:04:21.476Z,96529.53
2022-10-24T13:07:03.014Z,96525.41
2022-10-24T13:09:44.052Z,96523.66
2022-10-24T13:12:24.945Z,96518.84
2022-10-24T13:15:09.320Z,96504.75
2022-10-24T13:17:45.687Z,96516.06
2022-10-24T13:20:19.332Z,96523.84
2022-10-24T13:22:48.592Z,96516.19
2022-10-24T13:25:33.790Z,96524.16
2022-10-24T13:28:39.041Z,96519.63
2022-10-24T13:31:44.240Z,96539.41
2022-10-24T13:34:24.702Z,96529.53
2022-10-24T13:37:00.177Z,96538.84
2022-10-24T13:39:35.743Z,96536.09
2022-10-24T13:42:09.610Z,96544.72
2022-10-24T13:44:46.189Z,96547.50
2022-10-24T13:47:19.597Z,96534.47
2022-10-24T13:49:57.517Z,96525.41
2022-10-24T13:52:30.785Z,96521.53
2022-10-24T13:55:04.520Z,96499.13
2022-10-24T13:57:37.480Z,96539.50
2022-10-24T14:00:09.531Z,96542.47
2022-10-24T14:02:40.714Z,96543.97
2022-10-24T14:05:18.877Z,96542.97
2022-10-24T14:07:46.581Z,96546.19
2022-10-24T14:10:17.027Z,96558.84
2022-10-24T14:12:48.907Z,96560.69
2022-10-24T14:15:19.791Z,96553.13
2022-10-24T14:17:55.982Z,96559.03
2022-10-24T14:20:25.586Z,96565.31
2022-10-24T14:22:53.639Z,96559.31
2022-10-24T14:25:31.965Z,96553.13
2022-10-24T14:28:03.415Z,96573.69
2022-10-24T14:30:35.115Z,96567.75
2022-10-24T14:33:08.325Z,96570.50
2022-10-24T14:35:36.261Z,96571.56
2022-10-24T14:38:08.837Z,96565.97
2022-10-24T14:40:37.842Z,96554.78
2022-10-24T14:43:07.053Z,96562.16
2022-10-24T14:45:34.918Z,96569.50
2022-10-24T14:48:03.347Z,96559.16
2022-10-24T14:50:38.501Z,96562.97
2022-10-24T14:53:06.716Z,96550.97
2022-10-24T14:55:34.723Z,96559.09
2022-10-24T14:58:02.541Z,96546.72
2022-10-24T15:00:39.820Z,96547.25
2022-10-24T15:03:08.015Z,96557.94
2022-10-24T15:05:36.836Z,96555.56
2022-10-24T15:08:24.443Z,96542.88
2022-10-24T15:11:05.465Z,96555.06
2022-10-24T15:13:34.763Z,96548.75
2022-10-24T15:16:03.891Z,96557.63
2022-10-24T15:18:33.453Z,96564.13
2022-10-24T15:21:04.837Z,96573.31
2022-10-24T15:23:35.214Z,96567.38
2022-10-24T15:26:09.113Z,96564.53
2022-10-24T15:28:46.116Z,96551.97
2022-10-24T15:31:16.887Z,96554.25
2022-10-24T15:33:45.317Z,96565.53
2022-10-24T15:36:20.965Z,96548.34
2022-10-24T15:38:49.544Z,96538.75
2022-10-24T15:41:17.377Z,96538.19
2022-10-24T15:43:45.072Z,96551.38
2022-10-24T15:46:12.828Z,96550.13
2022-10-24T15:48:41.884Z,96554.44
2022-10-24T15:51:14.404Z,96552.78
2022-10-24T15:53:42.679Z,96537.59
2022-10-24T15:56:11.682Z,96546.25
2022-10-24T15:58:40.559Z,96553.81
2022-10-24T16:01:09.151Z,96515.38
2022-10-24T16:03:37.299Z,96556.38
2022-10-24T16:06:06.569Z,96548.97
2022-10-24T16:08:34.394Z,96552.91
2022-10-24T16:11:06.132Z,96544.28
2022-10-24T16:13:36.898Z,96553.81
2022-10-24T16:16:04.934Z,96557.56
2022-10-24T16:18:32.685Z,96557.25
2022-10-24T16:21:00.586Z,96543.19
2022-10-24T16:23:29.591Z,96554.50
2022-10-24T16:25:57.301Z,96538.72
2022-10-24T16:28:25.991Z,96548.09
2022-10-24T16:30:54.212Z,96535.47
2022-10-24T16:33:22.444Z,96552.41
2022-10-24T16:35:50.985Z,96539.22
2022-10-24T16:38:19.220Z,96543.00
2022-10-24T16:40:49.113Z,96547.91
2022-10-24T16:43:19.308Z,96552.03
2022-10-24T16:45:56.665Z,96557.91
2022-10-24T16:48:24.505Z,96544.72
2022-10-24T16:50:52.204Z,96539.22
2022-10-24T16:53:20.135Z,96536.25
2022-10-24T16:55:50.297Z,96522.84
2022-10-24T16:58:18.845Z,96532.84
2022-10-24T17:00:47.236Z,96547.19
2022-10-24T17:03:15.054Z,96557.91
2022-10-24T17:08:18.643Z,96567.06
2022-10-24T17:10:46.377Z,96552.53
2022-10-24T17:13:15.482Z,96538.06
2022-10-24T17:15:43.188Z,96558.38
2022-10-24T17:18:10.888Z,96558.06
2022-10-24T17:20:39.032Z,96557.22
2022-10-24T17:23:07.244Z,96559.84
2022-10-24T17:25:35.234Z,96557.22
2022-10-24T17:28:03.108Z,96555.94
2022-10-24T17:30:32.562Z,96571.63
2022-10-24T17:33:01.052Z,96566.09
2022-10-24T17:35:30.391Z,96566.16
2022-10-24T17:38:08.139Z,96560.91
2022-10-24T17:40:42.980Z,96569.25
2022-10-24T17:43:20.288Z,96567.06
2022-10-24T17:45:50.326Z,96563.22
2022-10-24T17:48:18.887Z,96578.19
2022-10-24T17:50:47.692Z,96577.16
2022-10-24T17:53:17.048Z,96574.75
2022-10-24T17:55:46.791Z,96576.38
2022-10-24T17:58:16.602Z,96564.34
2022-10-24T18:00:45.144Z,96570.50
2022-10-24T18:03:15.118Z,96574.56
2022-10-24T18:05:43.060Z,96560.38
2022-10-24T18:08:12.237Z,96572.75
2022-10-24T18:10:40.772Z,96569.41
2022-10-24T18:13:09.269Z,96563.66
2022-10-24T18:15:37.786Z,96538.66
2022-10-24T18:18:06.363Z,96551.00
2022-10-24T18:20:35.822Z,96583.91
2022-10-24T18:23:03.632Z,96579.09
2022-10-24T18:25:31.404Z,96593.03
2022-10-24T18:27:59.050Z,96592.53
2022-10-24T18:30:29.231Z,96598.25
2022-10-24T18:32:56.876Z,96605.84
2022-10-24T18:35:27.466Z,96618.09
2022-10-24T18:37:58.910Z,96618.56
2022-10-24T18:40:27.004Z,96621.63
2022-10-24T18:42:59.501Z,96622.69
2022-10-24T18:45:28.536Z,96602.09
2022-10-24T18:47:56.734Z,96626.53
2022-10-24T18:50:25.937Z,96623.84
2022-10-24T18:53:02.566Z,96619.78
2022-10-24T18:55:31.822Z,96623.50
2022-10-24T18:58:00.302Z,96629.34
2022-10-24T19:00:30.301Z,96630.50
2022-10-24T19:03:11.895Z,96631.28
2022-10-24T19:05:43.989Z,96633.19
2022-10-24T19:08:15.189Z,96639.22
2022-10-24T19:10:43.343Z,96638.97
2022-10-24T19:13:11.385Z,96638.16
2022-10-24T19:15:41.689Z,96639.22
2022-10-24T19:18:13.126Z,96649.94
2022-10-24T19:20:42.331Z,96623.75
2022-10-24T19:23:12.168Z,96641.78
2022-10-24T19:25:41.576Z,96627.09
2022-10-24T19:28:12.257Z,96626.66
2022-10-24T19:30:42.326Z,96617.50
2022-10-24T19:33:10.276Z,96631.88
2022-10-24T19:35:38.876Z,96633.56
2022-10-24T19:38:06.593Z,96634.81
2022-10-24T19:40:34.344Z,96628.63
2022-10-24T19:43:03.435Z,96625.94
2022-10-24T19:45:31.133Z,96629.56
2022-10-24T19:47:58.857Z,96624.44
2022-10-24T19:50:26.696Z,96626.88
2022-10-24T19:52:54.367Z,96638.41
2022-10-24T19:55:22.631Z,96637.22
2022-10-24T19:57:50.297Z,96644.31
2022-10-24T20:00:19.560Z,96633.16
2022-10-24T20:02:47.456Z,96634.53
2022-10-24T20:05:15.527Z,96629.06
2022-10-24T20:07:43.191Z,96629.78
2022-10-24T20:10:10.994Z,96629.66
2022-10-24T20:12:38.734Z,96632.22
2022-10-24T20:15:07.371Z,96631.75
2022-10-24T20:17:37.380Z,96642.44
2022-10-24T20:20:06.451Z,96640.72
2022-10-24T20:22:34.192Z,96643.97
2022-10-24T20:25:01.896Z,96645.13
2022-10-24T20:27:29.592Z,96651.25
2022-10-24T20:29:57.298Z,96654.16
2022-10-24T20:32:25.136Z,96662.09
2022-10-24T20:34:54.188Z,96659.63
2022-10-24T20:37:21.895Z,96655.78
2022-10-24T20:39:49.632Z,96660.44
2022-10-24T20:42:17.819Z,96657.97
2022-10-24T20:44:45.502Z,96656.34
2022-10-24T20:47:13.225Z,96661.19
2022-10-24T20:49:40.933Z,96666.97
2022-10-24T20:54:42.749Z,96679.56
2022-10-24T20:57:10.450Z,96674.06
2022-10-24T20:59:38.174Z,96683.72
2022-10-24T21:02:08.188Z,96682.94
2022-10-24T21:04:35.950Z,96680.47
2022-10-24T21:07:03.653Z,96679.44
2022-10-24T21:09:34.259Z,96676.59
2022-10-24T21:12:02.196Z,96672.16
2022-10-24T21:14:29.997Z,96666.06
2022-10-24T21:16:57.801Z,96692.63
2022-10-24T21:19:26.700Z,96699.78
2022-10-24T21:21:54.381Z,96700.31
2022-10-24T21:24:22.289Z,96702.31
2022-10-24T21:26:51.457Z,96702.09
2022-10-24T21:29:32.797Z,96699.63
2022-10-24T21:32:01.554Z,96694.91
2022-10-24T21:34:31.786Z,96704.13
2022-10-24T21:37:02.179Z,96707.22
2022-10-24T21:39:32.239Z,96702.50
2022-10-24T21:42:01.609Z,96725.00
2022-10-24T21:44:29.391Z,96726.50
2022-10-24T21:46:57.037Z,96699.25
2022-10-24T21:49:25.702Z,96731.63
2022-10-24T21:51:53.633Z,96730.50
2022-10-24T21:54:23.202Z,96731.00
2022-10-24T21:56:51.008Z,96730.78
2022-10-24T21:59:22.096Z,96731.63
2022-10-24T22:01:51.799Z,96734.66
2022-10-24T22:04:20.175Z,96733.31
2022-10-24T22:06:48.424Z,96736.81
2022-10-24T22:09:29.437Z,96744.75
2022-10-24T22:11:57.873Z,96745.22
2022-10-24T22:14:27.712Z,96746.38
2022-10-24T22:16:55.389Z,96750.44
2022-10-24T22:19:23.098Z,96756.63
2022-10-24T22:21:52.275Z,96762.41
2022-10-24T22:24:22.479Z,96764.78
2022-10-24T22:26:50.888Z,96761.53
2022-10-24T22:29:20.724Z,96765.84
2022-10-24T22:31:51.360Z,96763.59
2022-10-24T22:34:21.437Z,96756.13
2022-10-24T22:36:59.926Z,96771.69
2022-10-24T22:39:28.245Z,96788.72
2022-10-24T22:41:56.593Z,96819.78
2022-10-24T22:44:24.826Z,96816.56
2022-10-24T22:47:06.340Z,96815.66
2022-10-24T22:49:47.183Z,96817.28
2022-10-24T22:52:15.321Z,96818.09
2022-10-24T22:54:46.187Z,96802.63
2022-10-24T22:57:14.396Z,96790.78
2022-10-24T22:59:42.703Z,96796.38
2022-10-24T23:02:25.695Z,96793.69
2022-10-24T23:05:01.848Z,96794.66
2022-10-24T23:07:37.230Z,96791.03
2022-10-24T23:10:07.096Z,96806.84
2022-10-24T23:12:35.411Z,96807.28
2022-10-24T23:15:03.840Z,96800.38
2022-10-24T23:17:33.694Z,96802.56
2022-10-24T23:20:02.050Z,96796.28
2022-10-24T23:22:31.181Z,96796.84
2022-10-24T23:25:00.630Z,96812.34
2022-10-24T23:27:34.731Z,96816.66
2022-10-24T23:30:03.756Z,96816.03
2022-10-24T23:32:36.213Z,96830.16
2022-10-24T23:35:04.565Z,96837.28
2022-10-24T23:37:35.257Z,96839.97
2022-10-24T23:40:14.896Z,96839.63
2022-10-24T23:42:43.389Z,96831.16
2022-10-24T23:45:14.151Z,96844.19
2022-10-24T23:48:05.289Z,96852.38
2022-10-24T23:50:39.094Z,96849.44
2022-10-24T23:53:24.849Z,96865.97
2022-10-24T23:55:53.212Z,96877.28
2022-10-24T23:58:21.206Z,96855.41
